Las Vegas, Nevada (DRI) Weather observations

Data are for observation ending at time listed.
 Day   Time    Ave.   Ave.  Ave.  Vector   Max.   Stn.    Total    Solar   Ave.  
  of    of     Air    Rel.  Wind   Wind    Wind   Baro.  Precip.   Rad.    Soil  
Year   Day     Temp.  Hum.  Speed  Dir.    Gust   Pres.                    Temp. 
2016   (PST)    F      %     mph   deg.    mph     mb.     in.     W/m2     F   
------------------------------------------------------------------------------
 179    4:10   86.5    22    0.0     0      0.0   941.6    0.00       3    100.5
 179    4:20   86.9    21    0.1   155      1.7   941.7    0.00       3    100.4
 179    4:30   87.4    21    0.2   134      1.6   941.8    0.00       3    100.3
 179    4:40   87.5    21    0.1   156      1.8   941.9    0.00       7    100.2
 179    4:50   87.6    20    0.2   290      2.0   942.0    0.00      14    100.1
 179    5:00   87.6    21    0.1   310      1.8   942.2    0.00      25    100.0
 179    5:10   87.6    22    0.2   311      2.3   942.4    0.00      43    99.8
 179    5:20   87.6    23    0.0   311      1.1   942.4    0.00      46    99.7
 179    5:30   87.5    23    0.8     1      3.0   942.5    0.00      40    99.6
 179    5:40   87.6    23    0.5   348      2.4   942.6    0.00      43    99.4
 179    5:50   87.9    23    1.0   316      3.2   942.8    0.00      38    99.3
 179    6:00   88.2    23    0.1   306      1.6   942.9    0.00      43    99.2
 179    6:10   88.7    23    0.5   332      2.3   943.0    0.00      45    99.1
 179    6:20   88.9    23    0.2   329      1.8   943.2    0.00      46    99.0
 179    6:30   89.3    24    0.2   332      2.1   943.3    0.00      52    98.9
 179    6:40   89.3    24    0.1    44      0.9   943.3    0.00      56    98.8
 179    6:50   90.0    22    0.4    37      2.5   943.4    0.00      62    98.7
 179    7:00   90.3    21    0.1    51      1.8   943.5    0.00      60    98.6
 179    7:10   90.5    20    0.1    51      1.5   943.5    0.00      59    98.5
 179    7:20   91.2    20    0.3    51      3.2   943.6    0.00      73    98.4
 179    7:30   92.1    19    0.2    54      2.1   943.6    0.00      74    98.3
 179    7:40   92.6    18    0.3    54      2.4   943.6    0.00     141    98.2
 179    7:50   93.1    18    0.8    52      2.9   943.7    0.00     182    98.2
 179    8:00   93.8    17    0.5    40      4.5   943.6    0.00     245    98.1
 179    8:10   94.3    17    1.0    58      4.2   943.6    0.00     350    98.0
 179    8:20   94.6    16    0.9    58      3.8   943.6    0.00     642    97.9
 179    8:30   95.5    16    0.2    98      2.2   943.5    0.00     656    97.8
 179    8:40   96.4    16    1.1    45      3.7   943.5    0.00     706    97.7
 179    8:50   97.4    16    0.5    40      3.3   943.5    0.00     635    97.6
 179    9:00   98.0    14    1.9    46      5.1   943.4    0.00     577    97.5
 179    9:10   98.2    14    1.8    47      5.0   943.4    0.00     575    97.5
 179    9:20   99.5    14    1.3    42      4.4   943.4    0.00     850    97.5
 179    9:30  100.1    13    1.7    52      5.9   943.3    0.00     906    97.4
 179    9:40  101.2    13    1.3    48      4.1   943.3    0.00     927    97.3
 179    9:50  101.3    13    1.2   174      4.3   943.3    0.00     946    97.3
 179   10:00  101.4    14    1.3    69      4.3   943.2    0.00     965    97.2
 179   10:10  103.0    13    1.2   176      5.0   943.0    0.00     984    97.1
 179   10:20  102.4    13    2.6    53      5.3   943.0    0.00     998    97.1
 179   10:30  102.1    14    1.8    42      5.0   943.0    0.00    1014    97.0
 179   10:40  103.8    13    1.2     9      4.2   942.9    0.00    1028    97.0
 179   10:50  103.8    13    1.4   202      5.3   942.8    0.00    1038    96.9
 179   11:00  104.4    12    1.2    41      4.5   942.8    0.00    1046    96.9
 179   11:10  105.0    12    2.4    24      5.9   942.7    0.00    1052    96.9
 179   11:20  104.5    13    1.6   346      5.6   942.6    0.00    1057    96.9
 179   11:30  106.4    12    1.1   118      3.8   942.4    0.00    1062    96.9
 179   11:40  105.8    12    2.3    50      6.1   942.3    0.00    1067    97.0
 179   11:50  105.1    12    2.2    25      6.4   942.1    0.00    1070    97.1
 179   12:00  107.1    12    1.1    24      4.7   942.0    0.00    1073    97.2
 179   12:10  106.4    12    3.1    14      5.4   941.9    0.00    1073    97.4
 179   12:20  107.8    12    2.5    27      5.0   941.7    0.00    1078    97.5
 179   12:30  107.5    11    2.0    51      5.9   941.6    0.00    1085    97.6
 179   12:40  106.9    11    3.3    46      6.3   941.4    0.00    1091    97.8
 179   12:50  108.5    11    1.9    24      5.2   941.2    0.00    1089    98.0
 179   13:00  108.1    10    3.7    11      8.0   941.0    0.00     909    98.2
 179   13:10  108.7    10    3.1   357      6.4   940.9    0.00    1043    98.4
 179   13:20  109.6    10    1.8    44      5.5   940.7    0.00    1143    98.5
 179   13:30  110.2    10    2.8   358      5.4   940.6    0.00     995    98.7
 179   13:40  111.5    10    1.6   330      4.6   940.4    0.00     800    98.9
 179   13:50  110.3     9    1.7    32      3.9   940.3    0.00     634    99.2
 179   14:00  109.7    10    1.9   138      5.3   940.1    0.00     570    99.4
 179   14:10  111.0     9    1.5   127      5.6   940.0    0.00     798    99.6
 179   14:20  111.8     9    1.6   193      4.5   939.9    0.00    1069    99.8
 179   14:30  111.6     8    2.0   268      3.7   939.7    0.00     941    100.0
 179   14:40  112.1     8    1.7   218      5.5   939.6    0.00     710    100.3
 179   14:50  112.2     8    1.9   195      7.0   939.5    0.00     484    100.5
 179   15:00  111.3     8    1.8   176      5.5   939.4    0.00     464    100.8
 179   15:10  111.4     8    1.9   176      6.0   939.4    0.00     581    101.0
 179   15:20  111.0     8    2.3   176      5.4   939.3    0.00     571    101.2
 179   15:30  111.1     7    2.5   178     10.4   939.2    0.00     413    101.4
 179   15:40  110.2     7    2.1   191      4.6   939.2    0.00     488    101.7
 179   15:50  111.0     7    1.8   170      4.5   939.1    0.00     535    101.9
 179   16:00  111.1     7    1.2    69      3.8   939.0    0.00     555    102.1
 179   16:10  112.0     7    3.0   185      6.4   939.0    0.00     567    102.3
 179   16:20  110.8     7    2.6   195      4.9   938.9    0.00     431    102.5
 179   16:30  110.9     7    1.6   182      5.8   938.9    0.00     430    102.6
 179   16:40  112.4     7    1.0    30      2.8   938.8    0.00     439    102.8
 179   16:50  112.5     8    1.2   201      3.2   938.7    0.00     400    102.9
 179   17:00  112.1     8    1.7   184      5.0   938.6    0.00     384    103.1
 179   17:10  113.0     8    0.7   189      3.7   938.6    0.00     345    103.2
 179   17:20  112.3     8    0.9   200      2.3   938.6    0.00     311    103.3
 179   17:30  112.3     8    0.8   218      4.0   938.6    0.00     272    103.5
 179   17:40  112.3     8    1.2   191      3.9   938.6    0.00     241    103.6
 179   17:50  112.9     8    0.5   175      2.3   938.6    0.00     215    103.7
 179   18:00  112.6     9    0.4   160      1.5   938.6    0.00     207    103.9
 179   18:10  112.2     9    0.2   171      1.9   938.8    0.00     171    104.0
 179   18:20  110.5     9    0.2   278      1.8   938.9    0.00      87    104.1
 179   18:30  109.9     9    0.7    64      5.2   938.9    0.00      67    104.1
 179   18:40  107.1    11    2.3   210     11.9   939.2    0.00      40    104.3
 179   18:50  105.1    12    3.3   176     12.5   939.3    0.00      24    104.3
 179   19:00  104.2    12    3.7   166     14.7   939.4    0.00      12    104.4
 179   19:10  104.0    12    3.5   184     11.5   939.5    0.00       3    104.5
 179   19:20  104.0    12    7.5   177     17.5   939.5    0.00       0    104.5
 179   19:30  103.8    12    8.7   177     17.8   939.4    0.00       0    104.5
 179   19:40  103.3    12    8.4   175     19.5   939.4    0.00       0    104.5
 179   19:50  103.1    12    9.8   175     22.6   939.5    0.00       0    104.6
 179   20:00  102.9    13   10.7   174     21.8   939.6    0.00       0    104.5
 179   20:10  102.8    13   10.7   175     21.9   939.7    0.00       0    104.5
 179   20:20  102.7    13   12.2   177     26.2   939.8    0.00       0    104.5
 179   20:30  102.5    13    9.7   174     18.5   940.2    0.00       0    104.5
 179   20:40  102.4    13   11.6   176     18.9   940.3    0.00       0    104.5
 179   20:50  102.2    13   12.0   179     21.6   940.2    0.00       0    104.4
 179   21:00  102.2    13   10.5   177     21.6   940.2    0.00       0    104.4
 179   21:10  102.1    13    8.4   181     15.9   940.1    0.00       0    104.3
 179   21:20  101.8    13    7.4   190     13.7   940.2    0.00       0    104.3
 179   21:30  101.5    13    7.9   188     15.8   940.2    0.00       0    104.2
 179   21:40  100.9    14    7.4   182     16.4   940.2    0.00       0    104.1
 179   21:50  100.5    14    7.7   185     17.8   940.3    0.00       0    104.1
 179   22:00  100.2    14    7.4   183     14.3   940.5    0.00       0    104.0
 179   22:10  100.0    14    8.4   176     15.0   940.6    0.00       0    103.9
 179   22:20  100.0    14    8.6   179     16.0   940.9    0.00       0    103.8
 179   22:30   99.8    14    9.7   175     16.6   940.9    0.00       0    103.7
 179   22:40   99.3    14    7.9   175     14.8   941.1    0.00       0    103.7
 179   22:50   99.1    14    5.8   185     10.4   941.2    0.00       0    103.6
 179   23:00   99.0    14    6.5   184     16.7   941.2    0.00       0    103.5
 179   23:10   98.9    15    6.1   197     14.4   941.3    0.00       0    103.5
 179   23:20   98.7    15    6.6   202     13.6   941.0    0.00       0    103.4
 179   23:30   98.7    14    7.6   200     18.2   940.7    0.00       0    103.3
 179   23:40   98.8    14    6.5   187     15.0   941.1    0.00       0    103.2
 179   23:50   99.0    14    6.6   190     16.4   941.1    0.00       0    103.2
 180    0:00   99.1    14    5.0   210      9.5   941.1    0.00       0    103.1
 180    0:10   98.9    14    3.3   196      7.2   941.1    0.00       0    103.0
 180    0:20   98.7    14    4.9   178      9.3   941.1    0.00       0    102.9
 180    0:30   98.0    15    1.9   167      8.2   941.2    0.00       0    102.8
 180    0:40   97.1    16    1.4   174      5.8   941.3    0.00       0    102.8
 180    0:50   96.8    15    4.9   175      9.3   941.3    0.00       0    102.7
 180    1:00   96.9    15    4.6   174      9.1   941.4    0.00       0    102.6
 180    1:10   97.2    15    5.6   175     11.2   941.4    0.00       0    102.6
 180    1:20   97.1    15    6.5   176     13.4   941.5    0.00       0    102.5
 180    1:30   96.8    15    4.7   182      9.3   941.4    0.00       0    102.4
 180    1:40   96.7    15    4.6   195      8.8   941.4    0.00       1    102.3
 180    1:50   96.9    15    4.7   188     10.2   941.4    0.00       0    102.2
 180    2:00   96.9    15    4.6   186     11.1   941.4    0.00       0    102.2
 180    2:10   96.8    15    4.5   184     10.3   941.4    0.00       0    102.1
 180    2:20   96.8    15    3.9   201      9.0   941.6    0.00       0    102.0
 180    2:30   96.8    15    4.3   182     13.2   941.7    0.00       0    101.9
 180    2:40   96.1    15    2.2   182      5.1   941.7    0.00       0    101.8
 180    2:50   96.4    15    2.7   197      9.6   941.7    0.00       0    101.8
 180    3:00   96.8    15    2.4   190      5.7   941.9    0.00       0    101.7
 180    3:10   96.5    15    2.7   187      6.6   942.0    0.00       1    101.6
 180    3:20   96.2    15    4.1   179      7.5   942.1    0.00       1    101.5
 180    3:30   95.3    16    1.2   171      5.3   942.2    0.00       0    101.4
 180    3:40   94.5    17    1.1   174      3.6   942.4    0.00       0    101.4
 180    3:50   94.5    16    1.2   185      4.1   942.4    0.00       0    101.3
 180    4:00   94.9    16    2.2   186      5.0   942.6    0.00       0    101.2

Return to Las Vegas, Nevada graphs page.


Western Regional Climate Center,wrcc@dri.edu